sensor_id;sensor_type;location;lat;lon;timestamp;temperature;humidity
46816;DHT22;32787;53.316;8.670;2022-07-03T00:01:33;16.70;82.20
46816;DHT22;32787;53.316;8.670;2022-07-03T00:03:58;16.70;82.00
46816;DHT22;32787;53.316;8.670;2022-07-03T00:06:26;16.70;82.50
46816;DHT22;32787;53.316;8.670;2022-07-03T00:08:52;16.70;82.40
46816;DHT22;32787;53.316;8.670;2022-07-03T00:11:18;16.70;82.50
46816;DHT22;32787;53.316;8.670;2022-07-03T00:13:43;16.80;82.40
46816;DHT22;32787;53.316;8.670;2022-07-03T00:16:09;16.70;82.50
46816;DHT22;32787;53.316;8.670;2022-07-03T00:18:35;16.70;82.40
46816;DHT22;32787;53.316;8.670;2022-07-03T00:21:05;16.70;82.30
46816;DHT22;32787;53.316;8.670;2022-07-03T00:26:05;16.80;82.10
46816;DHT22;32787;53.316;8.670;2022-07-03T00:28:31;16.80;82.10
46816;DHT22;32787;53.316;8.670;2022-07-03T00:30:57;16.80;82.00
46816;DHT22;32787;53.316;8.670;2022-07-03T00:33:26;16.80;82.00
46816;DHT22;32787;53.316;8.670;2022-07-03T00:35:54;16.80;82.20
46816;DHT22;32787;53.316;8.670;2022-07-03T00:38:21;16.80;82.20
46816;DHT22;32787;53.316;8.670;2022-07-03T00:40:47;16.70;82.30
46816;DHT22;32787;53.316;8.670;2022-07-03T00:43:15;16.70;82.60
46816;DHT22;32787;53.316;8.670;2022-07-03T00:45:46;16.70;82.40
46816;DHT22;32787;53.316;8.670;2022-07-03T00:48:14;16.60;82.20
46816;DHT22;32787;53.316;8.670;2022-07-03T00:50:48;16.60;82.00
46816;DHT22;32787;53.316;8.670;2022-07-03T00:53:19;16.60;82.00
46816;DHT22;32787;53.316;8.670;2022-07-03T00:55:48;16.50;82.20
46816;DHT22;32787;53.316;8.670;2022-07-03T00:58:16;16.40;82.20
46816;DHT22;32787;53.316;8.670;2022-07-03T01:00:44;16.50;81.90
46816;DHT22;32787;53.316;8.670;2022-07-03T01:03:16;16.40;82.10
46816;DHT22;32787;53.316;8.670;2022-07-03T01:05:49;16.40;81.90
46816;DHT22;32787;53.316;8.670;2022-07-03T01:16:37;16.30;82.90
46816;DHT22;32787;53.316;8.670;2022-07-03T01:19:43;16.40;83.10
46816;DHT22;32787;53.316;8.670;2022-07-03T01:25:23;16.30;83.40
46816;DHT22;32787;53.316;8.670;2022-07-03T01:28:12;16.30;83.40
46816;DHT22;32787;53.316;8.670;2022-07-03T01:30:48;16.10;83.40
46816;DHT22;32787;53.316;8.670;2022-07-03T01:33:25;16.10;84.10
46816;DHT22;32787;53.316;8.670;2022-07-03T01:36:08;16.00;84.10
46816;DHT22;32787;53.316;8.670;2022-07-03T01:38:34;16.00;84.00
46816;DHT22;32787;53.316;8.670;2022-07-03T01:41:03;15.80;84.30
46816;DHT22;32787;53.316;8.670;2022-07-03T01:43:37;15.60;84.40
46816;DHT22;32787;53.316;8.670;2022-07-03T01:46:04;15.50;84.70
46816;DHT22;32787;53.316;8.670;2022-07-03T01:48:31;15.30;84.90
46816;DHT22;32787;53.316;8.670;2022-07-03T01:50:57;15.20;85.20
46816;DHT22;32787;53.316;8.670;2022-07-03T01:53:27;15.20;85.20
46816;DHT22;32787;53.316;8.670;2022-07-03T01:55:58;15.10;85.30
46816;DHT22;32787;53.316;8.670;2022-07-03T01:58:24;15.00;85.40
46816;DHT22;32787;53.316;8.670;2022-07-03T02:00:52;15.00;85.70
46816;DHT22;32787;53.316;8.670;2022-07-03T02:03:35;14.90;85.90
46816;DHT22;32787;53.316;8.670;2022-07-03T02:06:11;14.80;86.20
46816;DHT22;32787;53.316;8.670;2022-07-03T02:11:28;15.00;85.90
46816;DHT22;32787;53.316;8.670;2022-07-03T02:14:12;15.10;86.00
46816;DHT22;32787;53.316;8.670;2022-07-03T02:20:00;15.10;85.70
46816;DHT22;32787;53.316;8.670;2022-07-03T02:22:47;15.00;85.80
46816;DHT22;32787;53.316;8.670;2022-07-03T02:27:43;15.00;86.00
46816;DHT22;32787;53.316;8.670;2022-07-03T02:30:12;15.00;86.30
46816;DHT22;32787;53.316;8.670;2022-07-03T02:32:59;14.90;86.30
46816;DHT22;32787;53.316;8.670;2022-07-03T02:35:29;15.00;86.30
46816;DHT22;32787;53.316;8.670;2022-07-03T02:38:10;14.90;86.20
46816;DHT22;32787;53.316;8.670;2022-07-03T02:40:39;14.80;86.30
46816;DHT22;32787;53.316;8.670;2022-07-03T02:46:38;14.70;86.40
46816;DHT22;32787;53.316;8.670;2022-07-03T02:55:02;14.40;87.30
46816;DHT22;32787;53.316;8.670;2022-07-03T02:57:41;14.30;87.40
46816;DHT22;32787;53.316;8.670;2022-07-03T03:00:12;14.60;87.30
46816;DHT22;32787;53.316;8.670;2022-07-03T03:05:26;14.60;87.00
46816;DHT22;32787;53.316;8.670;2022-07-03T03:10:38;14.70;86.60
46816;DHT22;32787;53.316;8.670;2022-07-03T03:13:07;14.40;86.90
46816;DHT22;32787;53.316;8.670;2022-07-03T03:15:34;14.50;87.30
46816;DHT22;32787;53.316;8.670;2022-07-03T03:18:06;14.50;87.00
46816;DHT22;32787;53.316;8.670;2022-07-03T03:20:37;14.30;87.10
46816;DHT22;32787;53.316;8.670;2022-07-03T03:25:52;14.10;87.80
46816;DHT22;32787;53.316;8.670;2022-07-03T03:28:18;14.00;88.00
46816;DHT22;32787;53.316;8.670;2022-07-03T03:30:44;13.90;88.30
46816;DHT22;32787;53.316;8.670;2022-07-03T03:33:10;14.20;88.20
46816;DHT22;32787;53.316;8.670;2022-07-03T03:35:37;14.50;87.70
46816;DHT22;32787;53.316;8.670;2022-07-03T03:38:03;14.60;87.20
46816;DHT22;32787;53.316;8.670;2022-07-03T03:40:31;14.60;87.30
46816;DHT22;32787;53.316;8.670;2022-07-03T03:42:57;14.60;87.30
46816;DHT22;32787;53.316;8.670;2022-07-03T03:45:23;14.60;87.20
46816;DHT22;32787;53.316;8.670;2022-07-03T03:47:48;14.70;87.30
46816;DHT22;32787;53.316;8.670;2022-07-03T03:50:14;14.70;87.20
46816;DHT22;32787;53.316;8.670;2022-07-03T03:52:40;14.80;87.30
46816;DHT22;32787;53.316;8.670;2022-07-03T03:55:07;14.90;86.90
46816;DHT22;32787;53.316;8.670;2022-07-03T03:57:35;14.90;86.90
46816;DHT22;32787;53.316;8.670;2022-07-03T04:00:01;14.90;87.10
46816;DHT22;32787;53.316;8.670;2022-07-03T04:02:27;14.90;87.50
46816;DHT22;32787;53.316;8.670;2022-07-03T04:04:52;15.00;87.40
46816;DHT22;32787;53.316;8.670;2022-07-03T04:07:18;15.00;87.10
46816;DHT22;32787;53.316;8.670;2022-07-03T04:09:44;15.20;87.10
46816;DHT22;32787;53.316;8.670;2022-07-03T04:12:10;15.30;86.90
46816;DHT22;32787;53.316;8.670;2022-07-03T04:14:36;15.30;87.20
46816;DHT22;32787;53.316;8.670;2022-07-03T04:17:02;15.30;87.40
46816;DHT22;32787;53.316;8.670;2022-07-03T04:19:28;15.30;87.40
46816;DHT22;32787;53.316;8.670;2022-07-03T04:21:53;15.30;87.40
46816;DHT22;32787;53.316;8.670;2022-07-03T04:24:19;15.30;87.50
46816;DHT22;32787;53.316;8.670;2022-07-03T04:26:45;15.40;87.50
46816;DHT22;32787;53.316;8.670;2022-07-03T04:29:11;15.50;87.40
46816;DHT22;32787;53.316;8.670;2022-07-03T04:31:37;15.60;87.30
46816;DHT22;32787;53.316;8.670;2022-07-03T04:34:02;15.60;87.10
46816;DHT22;32787;53.316;8.670;2022-07-03T04:36:28;15.60;87.00
46816;DHT22;32787;53.316;8.670;2022-07-03T04:38:54;15.60;87.10
46816;DHT22;32787;53.316;8.670;2022-07-03T04:41:20;15.70;86.90
46816;DHT22;32787;53.316;8.670;2022-07-03T04:43:45;15.80;86.90
46816;DHT22;32787;53.316;8.670;2022-07-03T04:46:11;15.70;87.20
46816;DHT22;32787;53.316;8.670;2022-07-03T04:48:37;15.70;87.40
46816;DHT22;32787;53.316;8.670;2022-07-03T04:51:02;15.70;87.80
46816;DHT22;32787;53.316;8.670;2022-07-03T04:53:28;15.70;88.00
46816;DHT22;32787;53.316;8.670;2022-07-03T04:55:53;15.80;88.10
46816;DHT22;32787;53.316;8.670;2022-07-03T04:58:19;15.80;88.00
46816;DHT22;32787;53.316;8.670;2022-07-03T05:00:45;15.80;87.80
46816;DHT22;32787;53.316;8.670;2022-07-03T05:03:12;15.80;87.70
46816;DHT22;32787;53.316;8.670;2022-07-03T05:05:38;15.80;87.60
46816;DHT22;32787;53.316;8.670;2022-07-03T05:08:04;15.90;87.40
46816;DHT22;32787;53.316;8.670;2022-07-03T05:10:29;16.00;87.60
46816;DHT22;32787;53.316;8.670;2022-07-03T05:12:55;16.00;87.40
46816;DHT22;32787;53.316;8.670;2022-07-03T05:15:21;16.10;87.30
46816;DHT22;32787;53.316;8.670;2022-07-03T05:17:47;16.20;87.30
46816;DHT22;32787;53.316;8.670;2022-07-03T05:20:13;16.30;87.20
46816;DHT22;32787;53.316;8.670;2022-07-03T05:23:02;16.40;86.90
46816;DHT22;32787;53.316;8.670;2022-07-03T05:25:29;16.60;86.40
46816;DHT22;32787;53.316;8.670;2022-07-03T05:27:55;16.80;86.10
46816;DHT22;32787;53.316;8.670;2022-07-03T05:30:25;17.00;85.80
46816;DHT22;32787;53.316;8.670;2022-07-03T05:32:51;17.10;85.40
46816;DHT22;32787;53.316;8.670;2022-07-03T05:35:18;17.30;85.10
46816;DHT22;32787;53.316;8.670;2022-07-03T05:37:43;17.40;84.10
46816;DHT22;32787;53.316;8.670;2022-07-03T05:40:09;17.50;83.00
46816;DHT22;32787;53.316;8.670;2022-07-03T05:42:35;17.60;83.40
46816;DHT22;32787;53.316;8.670;2022-07-03T05:45:02;17.60;83.20
46816;DHT22;32787;53.316;8.670;2022-07-03T05:47:28;17.60;83.30
46816;DHT22;32787;53.316;8.670;2022-07-03T05:49:54;17.70;82.80
46816;DHT22;32787;53.316;8.670;2022-07-03T05:52:20;17.70;83.00
46816;DHT22;32787;53.316;8.670;2022-07-03T05:54:46;17.80;82.60
46816;DHT22;32787;53.316;8.670;2022-07-03T05:57:11;17.80;82.50
46816;DHT22;32787;53.316;8.670;2022-07-03T05:59:38;17.90;82.60
46816;DHT22;32787;53.316;8.670;2022-07-03T06:02:04;17.90;82.30
46816;DHT22;32787;53.316;8.670;2022-07-03T06:04:30;18.00;82.30
46816;DHT22;32787;53.316;8.670;2022-07-03T06:06:55;18.20;81.10
46816;DHT22;32787;53.316;8.670;2022-07-03T06:09:22;18.20;80.60
46816;DHT22;32787;53.316;8.670;2022-07-03T06:11:48;18.30;80.40
46816;DHT22;32787;53.316;8.670;2022-07-03T06:14:14;18.40;80.60
46816;DHT22;32787;53.316;8.670;2022-07-03T06:16:40;18.40;80.60
46816;DHT22;32787;53.316;8.670;2022-07-03T06:19:05;18.50;80.80
46816;DHT22;32787;53.316;8.670;2022-07-03T06:21:31;18.50;80.80
46816;DHT22;32787;53.316;8.670;2022-07-03T06:23:57;18.60;80.80
46816;DHT22;32787;53.316;8.670;2022-07-03T06:26:23;18.70;80.80
46816;DHT22;32787;53.316;8.670;2022-07-03T06:28:48;18.70;79.30
46816;DHT22;32787;53.316;8.670;2022-07-03T06:31:14;18.80;79.50
46816;DHT22;32787;53.316;8.670;2022-07-03T06:33:40;18.90;79.20
46816;DHT22;32787;53.316;8.670;2022-07-03T06:36:06;18.90;78.90
46816;DHT22;32787;53.316;8.670;2022-07-03T06:38:31;19.10;79.10
46816;DHT22;32787;53.316;8.670;2022-07-03T06:40:57;19.20;78.70
46816;DHT22;32787;53.316;8.670;2022-07-03T06:43:23;19.30;78.50
46816;DHT22;32787;53.316;8.670;2022-07-03T06:45:49;19.40;77.10
46816;DHT22;32787;53.316;8.670;2022-07-03T06:48:14;19.50;76.70
46816;DHT22;32787;53.316;8.670;2022-07-03T06:50:40;19.70;76.30
46816;DHT22;32787;53.316;8.670;2022-07-03T06:53:05;19.80;74.50
46816;DHT22;32787;53.316;8.670;2022-07-03T06:55:31;20.00;75.10
46816;DHT22;32787;53.316;8.670;2022-07-03T06:57:57;20.10;74.50
46816;DHT22;32787;53.316;8.670;2022-07-03T07:00:22;20.30;75.10
46816;DHT22;32787;53.316;8.670;2022-07-03T07:02:48;20.30;75.50
46816;DHT22;32787;53.316;8.670;2022-07-03T07:05:13;20.30;75.90
46816;DHT22;32787;53.316;8.670;2022-07-03T07:07:39;20.30;75.80
46816;DHT22;32787;53.316;8.670;2022-07-03T07:10:05;20.20;76.00
46816;DHT22;32787;53.316;8.670;2022-07-03T07:12:31;20.10;75.50
46816;DHT22;32787;53.316;8.670;2022-07-03T07:14:56;20.10;75.60
46816;DHT22;32787;53.316;8.670;2022-07-03T07:17:22;20.00;76.50
46816;DHT22;32787;53.316;8.670;2022-07-03T07:19:47;19.90;76.90
46816;DHT22;32787;53.316;8.670;2022-07-03T07:22:13;19.80;76.70
46816;DHT22;32787;53.316;8.670;2022-07-03T07:24:39;19.70;76.10
46816;DHT22;32787;53.316;8.670;2022-07-03T07:27:04;19.70;76.30
46816;DHT22;32787;53.316;8.670;2022-07-03T07:29:30;19.80;75.60
46816;DHT22;32787;53.316;8.670;2022-07-03T07:31:56;19.90;71.80
46816;DHT22;32787;53.316;8.670;2022-07-03T07:34:21;20.00;73.60
46816;DHT22;32787;53.316;8.670;2022-07-03T07:36:47;20.20;70.20
46816;DHT22;32787;53.316;8.670;2022-07-03T07:39:12;20.30;69.30
46816;DHT22;32787;53.316;8.670;2022-07-03T07:41:38;20.60;68.00
46816;DHT22;32787;53.316;8.670;2022-07-03T07:44:04;20.60;68.90
46816;DHT22;32787;53.316;8.670;2022-07-03T07:46:30;20.70;69.20
46816;DHT22;32787;53.316;8.670;2022-07-03T07:48:56;20.80;69.30
46816;DHT22;32787;53.316;8.670;2022-07-03T07:51:22;21.00;68.70
46816;DHT22;32787;53.316;8.670;2022-07-03T07:53:47;21.10;66.90
46816;DHT22;32787;53.316;8.670;2022-07-03T07:56:14;21.10;67.10
46816;DHT22;32787;53.316;8.670;2022-07-03T07:58:40;21.20;61.90
46816;DHT22;32787;53.316;8.670;2022-07-03T08:01:05;21.30;63.20
46816;DHT22;32787;53.316;8.670;2022-07-03T08:03:50;21.50;63.60
46816;DHT22;32787;53.316;8.670;2022-07-03T08:06:34;21.50;64.70
46816;DHT22;32787;53.316;8.670;2022-07-03T08:09:00;21.70;65.80
46816;DHT22;32787;53.316;8.670;2022-07-03T08:11:25;21.90;66.40
46816;DHT22;32787;53.316;8.670;2022-07-03T08:13:51;22.00;65.00
46816;DHT22;32787;53.316;8.670;2022-07-03T08:16:16;22.00;63.70
46816;DHT22;32787;53.316;8.670;2022-07-03T08:18:43;22.00;64.00
46816;DHT22;32787;53.316;8.670;2022-07-03T08:21:08;22.00;61.50
46816;DHT22;32787;53.316;8.670;2022-07-03T08:23:34;22.10;60.70
46816;DHT22;32787;53.316;8.670;2022-07-03T08:25:59;22.10;61.40
46816;DHT22;32787;53.316;8.670;2022-07-03T08:28:26;22.30;61.20
46816;DHT22;32787;53.316;8.670;2022-07-03T08:30:52;22.30;61.20
46816;DHT22;32787;53.316;8.670;2022-07-03T08:33:18;22.40;61.10
46816;DHT22;32787;53.316;8.670;2022-07-03T08:35:43;22.50;61.10
46816;DHT22;32787;53.316;8.670;2022-07-03T08:38:09;22.40;61.90
46816;DHT22;32787;53.316;8.670;2022-07-03T08:40:35;22.60;62.90
46816;DHT22;32787;53.316;8.670;2022-07-03T08:43:01;22.70;62.50
46816;DHT22;32787;53.316;8.670;2022-07-03T08:45:27;22.70;61.00
46816;DHT22;32787;53.316;8.670;2022-07-03T08:47:55;22.80;62.20
46816;DHT22;32787;53.316;8.670;2022-07-03T08:50:22;22.70;60.90
46816;DHT22;32787;53.316;8.670;2022-07-03T08:52:48;22.80;59.80
46816;DHT22;32787;53.316;8.670;2022-07-03T08:55:15;22.80;60.00
46816;DHT22;32787;53.316;8.670;2022-07-03T08:57:42;22.80;59.60
46816;DHT22;32787;53.316;8.670;2022-07-03T09:00:10;22.80;59.20
46816;DHT22;32787;53.316;8.670;2022-07-03T09:02:38;22.80;57.70
46816;DHT22;32787;53.316;8.670;2022-07-03T09:05:07;22.80;58.60
46816;DHT22;32787;53.316;8.670;2022-07-03T09:07:38;22.80;58.90
46816;DHT22;32787;53.316;8.670;2022-07-03T09:10:08;22.80;58.00
46816;DHT22;32787;53.316;8.670;2022-07-03T09:12:34;22.70;58.60
46816;DHT22;32787;53.316;8.670;2022-07-03T09:15:03;22.90;55.70
46816;DHT22;32787;53.316;8.670;2022-07-03T09:17:30;23.00;54.60
46816;DHT22;32787;53.316;8.670;2022-07-03T09:19:59;22.90;57.20
46816;DHT22;32787;53.316;8.670;2022-07-03T09:22:27;23.00;51.70
46816;DHT22;32787;53.316;8.670;2022-07-03T09:25:12;23.20;48.80
46816;DHT22;32787;53.316;8.670;2022-07-03T09:27:51;23.40;49.20
46816;DHT22;32787;53.316;8.670;2022-07-03T09:30:17;23.30;50.20
46816;DHT22;32787;53.316;8.670;2022-07-03T09:32:44;23.30;52.10
46816;DHT22;32787;53.316;8.670;2022-07-03T09:37:41;23.00;53.10
46816;DHT22;32787;53.316;8.670;2022-07-03T09:40:12;23.30;51.90
46816;DHT22;32787;53.316;8.670;2022-07-03T09:42:38;23.50;47.50
46816;DHT22;32787;53.316;8.670;2022-07-03T09:45:04;23.70;49.80
46816;DHT22;32787;53.316;8.670;2022-07-03T09:47:30;23.70;48.00
46816;DHT22;32787;53.316;8.670;2022-07-03T09:49:57;23.60;49.30
46816;DHT22;32787;53.316;8.670;2022-07-03T09:52:43;23.50;49.90
46816;DHT22;32787;53.316;8.670;2022-07-03T09:57:40;23.50;50.30
46816;DHT22;32787;53.316;8.670;2022-07-03T10:03:04;23.80;50.60
46816;DHT22;32787;53.316;8.670;2022-07-03T10:08:03;23.70;52.00
46816;DHT22;32787;53.316;8.670;2022-07-03T10:10:36;23.80;50.10
46816;DHT22;32787;53.316;8.670;2022-07-03T10:13:03;23.90;51.00
46816;DHT22;32787;53.316;8.670;2022-07-03T10:15:30;23.70;50.80
46816;DHT22;32787;53.316;8.670;2022-07-03T10:17:57;23.80;52.00
46816;DHT22;32787;53.316;8.670;2022-07-03T10:20:31;24.00;52.80
46816;DHT22;32787;53.316;8.670;2022-07-03T10:22:59;24.20;50.30
46816;DHT22;32787;53.316;8.670;2022-07-03T10:25:25;24.30;51.00
46816;DHT22;32787;53.316;8.670;2022-07-03T10:27:51;24.20;54.00
46816;DHT22;32787;53.316;8.670;2022-07-03T10:30:21;24.30;50.10
46816;DHT22;32787;53.316;8.670;2022-07-03T10:32:50;24.50;49.40
46816;DHT22;32787;53.316;8.670;2022-07-03T10:35:20;24.30;51.70
46816;DHT22;32787;53.316;8.670;2022-07-03T10:38:02;24.20;48.70
46816;DHT22;32787;53.316;8.670;2022-07-03T10:43:52;24.20;50.60
46816;DHT22;32787;53.316;8.670;2022-07-03T10:46:37;24.50;51.00
46816;DHT22;32787;53.316;8.670;2022-07-03T10:51:59;24.80;46.80
46816;DHT22;32787;53.316;8.670;2022-07-03T10:54:31;24.70;47.60
46816;DHT22;32787;53.316;8.670;2022-07-03T11:05:10;25.00;47.20
46816;DHT22;32787;53.316;8.670;2022-07-03T11:07:44;24.70;48.10
46816;DHT22;32787;53.316;8.670;2022-07-03T11:13:09;25.10;49.50
46816;DHT22;32787;53.316;8.670;2022-07-03T11:25:53;28.90;37.00
46816;DHT22;32787;53.316;8.670;2022-07-03T11:33:57;28.20;41.10
46816;DHT22;32787;53.316;8.670;2022-07-03T11:38:53;28.30;38.40
46816;DHT22;32787;53.316;8.670;2022-07-03T11:44:04;27.50;40.30
46816;DHT22;32787;53.316;8.670;2022-07-03T11:46:36;27.20;41.80
46816;DHT22;32787;53.316;8.670;2022-07-03T11:49:13;26.50;46.60
46816;DHT22;32787;53.316;8.670;2022-07-03T11:51:53;26.50;47.60
46816;DHT22;32787;53.316;8.670;2022-07-03T11:54:18;26.20;45.80
46816;DHT22;32787;53.316;8.670;2022-07-03T11:56:44;25.80;43.10
46816;DHT22;32787;53.316;8.670;2022-07-03T11:59:10;25.70;46.00
46816;DHT22;32787;53.316;8.670;2022-07-03T12:01:38;25.70;48.00
46816;DHT22;32787;53.316;8.670;2022-07-03T12:06:58;25.40;50.60
46816;DHT22;32787;53.316;8.670;2022-07-03T12:09:26;25.40;48.20
46816;DHT22;32787;53.316;8.670;2022-07-03T12:14:43;24.80;46.50
46816;DHT22;32787;53.316;8.670;2022-07-03T12:19:53;24.70;48.20
46816;DHT22;32787;53.316;8.670;2022-07-03T12:22:24;25.20;46.90
46816;DHT22;32787;53.316;8.670;2022-07-03T12:27:27;25.00;49.00
46816;DHT22;32787;53.316;8.670;2022-07-03T12:29:53;25.70;47.80
46816;DHT22;32787;53.316;8.670;2022-07-03T12:32:19;26.40;47.60
46816;DHT22;32787;53.316;8.670;2022-07-03T12:34:45;27.30;43.90
46816;DHT22;32787;53.316;8.670;2022-07-03T12:37:11;28.30;39.80
46816;DHT22;32787;53.316;8.670;2022-07-03T12:39:47;29.60;38.50
46816;DHT22;32787;53.316;8.670;2022-07-03T12:42:20;30.30;36.80
46816;DHT22;32787;53.316;8.670;2022-07-03T12:44:59;30.40;34.30
46816;DHT22;32787;53.316;8.670;2022-07-03T12:47:26;30.30;35.60
46816;DHT22;32787;53.316;8.670;2022-07-03T12:50:03;29.80;37.40
46816;DHT22;32787;53.316;8.670;2022-07-03T12:52:30;28.50;39.30
46816;DHT22;32787;53.316;8.670;2022-07-03T12:54:57;28.10;41.00
46816;DHT22;32787;53.316;8.670;2022-07-03T12:57:23;27.70;44.00
46816;DHT22;32787;53.316;8.670;2022-07-03T13:00:16;26.80;43.10
46816;DHT22;32787;53.316;8.670;2022-07-03T13:02:44;26.10;44.90
46816;DHT22;32787;53.316;8.670;2022-07-03T13:05:22;26.70;46.90
46816;DHT22;32787;53.316;8.670;2022-07-03T13:07:53;28.10;42.50
46816;DHT22;32787;53.316;8.670;2022-07-03T13:10:21;29.40;41.60
46816;DHT22;32787;53.316;8.670;2022-07-03T13:12:54;29.70;39.00
46816;DHT22;32787;53.316;8.670;2022-07-03T13:15:23;31.10;38.70
46816;DHT22;32787;53.316;8.670;2022-07-03T13:20:21;32.20;34.90
46816;DHT22;32787;53.316;8.670;2022-07-03T13:22:48;32.70;34.30
46816;DHT22;32787;53.316;8.670;2022-07-03T13:25:14;33.40;33.90
46816;DHT22;32787;53.316;8.670;2022-07-03T13:27:40;33.70;33.00
46816;DHT22;32787;53.316;8.670;2022-07-03T13:30:06;32.10;36.60
46816;DHT22;32787;53.316;8.670;2022-07-03T13:32:31;28.90;43.50
46816;DHT22;32787;53.316;8.670;2022-07-03T13:34:57;27.00;49.50
46816;DHT22;32787;53.316;8.670;2022-07-03T13:37:23;26.10;51.30
46816;DHT22;32787;53.316;8.670;2022-07-03T13:39:48;25.40;54.30
46816;DHT22;32787;53.316;8.670;2022-07-03T13:42:14;24.50;54.60
46816;DHT22;32787;53.316;8.670;2022-07-03T13:44:40;24.20;57.70
46816;DHT22;32787;53.316;8.670;2022-07-03T13:47:05;24.00;56.50
46816;DHT22;32787;53.316;8.670;2022-07-03T13:49:32;23.40;58.60
46816;DHT22;32787;53.316;8.670;2022-07-03T13:51:58;23.40;59.00
46816;DHT22;32787;53.316;8.670;2022-07-03T13:54:23;23.30;58.80
46816;DHT22;32787;53.316;8.670;2022-07-03T13:56:49;23.20;60.30
46816;DHT22;32787;53.316;8.670;2022-07-03T13:59:15;23.50;60.90
46816;DHT22;32787;53.316;8.670;2022-07-03T14:01:41;23.80;59.90
46816;DHT22;32787;53.316;8.670;2022-07-03T14:04:07;25.60;57.20
46816;DHT22;32787;53.316;8.670;2022-07-03T14:06:34;27.40;51.10
46816;DHT22;32787;53.316;8.670;2022-07-03T14:09:00;28.70;47.50
46816;DHT22;32787;53.316;8.670;2022-07-03T14:11:25;29.40;44.60
46816;DHT22;32787;53.316;8.670;2022-07-03T14:13:52;28.70;46.50
46816;DHT22;32787;53.316;8.670;2022-07-03T14:16:17;29.40;43.70
46816;DHT22;32787;53.316;8.670;2022-07-03T14:18:43;27.80;47.50
46816;DHT22;32787;53.316;8.670;2022-07-03T14:21:09;26.70;50.20
46816;DHT22;32787;53.316;8.670;2022-07-03T14:23:35;25.70;51.70
46816;DHT22;32787;53.316;8.670;2022-07-03T14:26:00;24.60;55.50
46816;DHT22;32787;53.316;8.670;2022-07-03T14:28:26;23.80;58.40
46816;DHT22;32787;53.316;8.670;2022-07-03T14:31:10;23.30;61.30
46816;DHT22;32787;53.316;8.670;2022-07-03T14:33:45;22.80;62.50
46816;DHT22;32787;53.316;8.670;2022-07-03T14:36:12;22.50;63.20
46816;DHT22;32787;53.316;8.670;2022-07-03T14:38:38;22.40;64.70
46816;DHT22;32787;53.316;8.670;2022-07-03T14:41:03;22.20;65.00
46816;DHT22;32787;53.316;8.670;2022-07-03T14:43:29;21.70;66.80
46816;DHT22;32787;53.316;8.670;2022-07-03T14:45:54;21.40;71.10
46816;DHT22;32787;53.316;8.670;2022-07-03T14:48:20;21.50;72.90
46816;DHT22;32787;53.316;8.670;2022-07-03T14:50:46;21.30;74.00
46816;DHT22;32787;53.316;8.670;2022-07-03T14:53:11;21.10;77.00
46816;DHT22;32787;53.316;8.670;2022-07-03T14:55:39;21.20;76.00
46816;DHT22;32787;53.316;8.670;2022-07-03T14:58:15;21.10;77.20
46816;DHT22;32787;53.316;8.670;2022-07-03T15:00:46;21.00;77.10
46816;DHT22;32787;53.316;8.670;2022-07-03T15:03:28;21.10;78.70
46816;DHT22;32787;53.316;8.670;2022-07-03T15:05:56;21.20;78.50
46816;DHT22;32787;53.316;8.670;2022-07-03T15:11:43;21.00;77.60
46816;DHT22;32787;53.316;8.670;2022-07-03T15:14:07;20.90;78.30
46816;DHT22;32787;53.316;8.670;2022-07-03T15:16:35;21.10;78.80
46816;DHT22;32787;53.316;8.670;2022-07-03T15:19:02;21.10;77.60
46816;DHT22;32787;53.316;8.670;2022-07-03T15:21:30;21.10;77.90
46816;DHT22;32787;53.316;8.670;2022-07-03T15:24:02;21.40;77.70
46816;DHT22;32787;53.316;8.670;2022-07-03T15:26:31;23.10;76.30
46816;DHT22;32787;53.316;8.670;2022-07-03T15:29:00;24.00;71.00
46816;DHT22;32787;53.316;8.670;2022-07-03T15:31:33;24.20;69.90
46816;DHT22;32787;53.316;8.670;2022-07-03T15:34:04;25.70;64.80
46816;DHT22;32787;53.316;8.670;2022-07-03T15:36:38;26.70;61.40
46816;DHT22;32787;53.316;8.670;2022-07-03T15:39:08;26.50;61.50
46816;DHT22;32787;53.316;8.670;2022-07-03T15:42:10;26.50;62.70
46816;DHT22;32787;53.316;8.670;2022-07-03T15:47:46;24.30;64.20
46816;DHT22;32787;53.316;8.670;2022-07-03T15:50:43;23.50;66.10
46816;DHT22;32787;53.316;8.670;2022-07-03T15:53:17;23.20;67.80
46816;DHT22;32787;53.316;8.670;2022-07-03T15:55:44;23.00;70.30
46816;DHT22;32787;53.316;8.670;2022-07-03T15:58:12;23.60;68.60
46816;DHT22;32787;53.316;8.670;2022-07-03T16:00:40;24.60;66.50
46816;DHT22;32787;53.316;8.670;2022-07-03T16:03:28;25.10;65.10
46816;DHT22;32787;53.316;8.670;2022-07-03T16:06:02;25.70;58.80
46816;DHT22;32787;53.316;8.670;2022-07-03T16:08:28;25.00;59.70
46816;DHT22;32787;53.316;8.670;2022-07-03T16:10:54;24.30;63.50
46816;DHT22;32787;53.316;8.670;2022-07-03T16:13:25;23.70;67.50
46816;DHT22;32787;53.316;8.670;2022-07-03T16:15:52;23.20;68.10
46816;DHT22;32787;53.316;8.670;2022-07-03T16:18:17;22.90;68.60
46816;DHT22;32787;53.316;8.670;2022-07-03T16:20:46;22.50;68.40
46816;DHT22;32787;53.316;8.670;2022-07-03T16:23:13;22.70;65.50
46816;DHT22;32787;53.316;8.670;2022-07-03T16:25:39;23.30;64.00
46816;DHT22;32787;53.316;8.670;2022-07-03T16:28:07;23.90;60.90
46816;DHT22;32787;53.316;8.670;2022-07-03T16:30:45;23.60;60.10
46816;DHT22;32787;53.316;8.670;2022-07-03T16:33:11;23.20;63.00
46816;DHT22;32787;53.316;8.670;2022-07-03T16:35:40;22.90;63.30
46816;DHT22;32787;53.316;8.670;2022-07-03T16:38:10;22.70;63.00
46816;DHT22;32787;53.316;8.670;2022-07-03T16:40:38;22.30;64.50
46816;DHT22;32787;53.316;8.670;2022-07-03T16:43:05;22.20;66.30
46816;DHT22;32787;53.316;8.670;2022-07-03T16:45:34;21.90;66.80
46816;DHT22;32787;53.316;8.670;2022-07-03T16:48:08;21.90;65.60
46816;DHT22;32787;53.316;8.670;2022-07-03T16:50:35;21.70;67.40
46816;DHT22;32787;53.316;8.670;2022-07-03T16:53:01;21.20;68.70
46816;DHT22;32787;53.316;8.670;2022-07-03T16:55:26;21.00;69.70
46816;DHT22;32787;53.316;8.670;2022-07-03T16:57:55;21.00;71.30
46816;DHT22;32787;53.316;8.670;2022-07-03T17:00:24;20.80;70.20
46816;DHT22;32787;53.316;8.670;2022-07-03T17:02:50;20.50;67.00
46816;DHT22;32787;53.316;8.670;2022-07-03T17:05:21;20.10;66.90
46816;DHT22;32787;53.316;8.670;2022-07-03T17:07:48;20.00;68.40
46816;DHT22;32787;53.316;8.670;2022-07-03T17:10:15;19.50;69.60
46816;DHT22;32787;53.316;8.670;2022-07-03T17:12:46;19.40;69.70
46816;DHT22;32787;53.316;8.670;2022-07-03T17:15:14;19.20;71.60
46816;DHT22;32787;53.316;8.670;2022-07-03T17:17:42;19.10;73.30
46816;DHT22;32787;53.316;8.670;2022-07-03T17:20:45;19.00;72.40
46816;DHT22;32787;53.316;8.670;2022-07-03T17:23:15;19.00;73.50
46816;DHT22;32787;53.316;8.670;2022-07-03T17:25:52;18.90;73.00
46816;DHT22;32787;53.316;8.670;2022-07-03T17:28:21;19.20;73.50